createdAt,value
2017-02-10T00:00:39.124Z,0
2017-02-10T00:01:19.773Z,0
2017-02-10T00:02:02.467Z,0
2017-02-10T00:02:45.163Z,0
2017-02-10T00:03:30.641Z,0
2017-02-10T00:04:23.082Z,0
2017-02-10T00:05:03.695Z,0
2017-02-10T00:05:44.348Z,0
2017-02-10T00:06:25.025Z,0
2017-02-10T00:07:05.648Z,0
2017-02-10T00:07:46.301Z,0
2017-02-10T00:08:26.953Z,0
2017-02-10T00:09:07.614Z,0
2017-02-10T00:09:48.266Z,0
2017-02-10T00:10:28.926Z,0
2017-02-10T00:11:09.577Z,0
2017-02-10T00:11:50.234Z,0
2017-02-10T00:12:30.876Z,0
2017-02-10T00:13:11.524Z,0
2017-02-10T00:13:52.222Z,0
2017-02-10T00:14:32.769Z,0
2017-02-10T00:15:13.396Z,0
2017-02-10T00:15:54.026Z,0
2017-02-10T00:16:34.636Z,0
2017-02-10T00:17:15.218Z,0
2017-02-10T00:17:55.908Z,0
2017-02-10T00:18:36.549Z,0
2017-02-10T00:19:17.199Z,0
2017-02-10T00:19:57.850Z,0
2017-02-10T00:20:38.525Z,0
2017-02-10T00:21:19.163Z,0
2017-02-10T00:21:59.825Z,0
2017-02-10T00:22:40.589Z,0
2017-02-10T00:23:21.225Z,0
2017-02-10T00:24:01.874Z,0
2017-02-10T00:24:42.523Z,0
2017-02-10T00:25:23.195Z,0
2017-02-10T00:26:03.828Z,0
2017-02-10T00:26:44.485Z,0
2017-02-10T00:27:25.135Z,0
2017-02-10T00:28:05.790Z,0
2017-02-10T00:28:46.454Z,0
2017-02-10T00:29:27.110Z,0
2017-02-10T00:30:07.746Z,0
2017-02-10T00:30:48.394Z,0
2017-02-10T00:31:29.054Z,0
2017-02-10T00:32:09.713Z,0
2017-02-10T00:32:50.356Z,0
2017-02-10T00:33:31.059Z,0
2017-02-10T00:34:11.612Z,0
2017-02-10T00:34:52.337Z,0
2017-02-10T00:35:32.970Z,0
2017-02-10T00:36:13.578Z,0
2017-02-10T00:36:54.151Z,0
2017-02-10T00:37:34.825Z,0
2017-02-10T00:38:15.494Z,0
2017-02-10T00:38:56.193Z,0
2017-02-10T00:39:36.777Z,0
2017-02-10T00:40:17.463Z,0
2017-02-10T00:40:58.114Z,0
2017-02-10T00:41:38.792Z,0
2017-02-10T00:42:19.351Z,0
2017-02-10T00:43:00.068Z,0
2017-02-10T00:43:40.708Z,0
2017-02-10T00:44:21.309Z,0
2017-02-10T00:45:02.007Z,0
2017-02-10T00:45:42.661Z,0
2017-02-10T00:46:23.232Z,0
2017-02-10T00:47:03.885Z,0
2017-02-10T00:47:44.528Z,0
2017-02-10T00:48:25.100Z,0
2017-02-10T00:49:05.721Z,0
2017-02-10T00:49:46.385Z,0
2017-02-10T00:50:27.046Z,0
2017-02-10T00:51:07.680Z,0
2017-02-10T00:51:48.350Z,0
2017-02-10T00:52:28.995Z,0
2017-02-10T00:53:09.671Z,0
2017-02-10T00:53:50.339Z,0
2017-02-10T00:54:30.912Z,0
2017-02-10T00:55:11.601Z,0
2017-02-10T00:55:52.271Z,0
2017-02-10T00:56:32.958Z,0
2017-02-10T00:57:13.511Z,0
2017-02-10T00:57:54.213Z,0
2017-02-10T00:58:34.859Z,0
2017-02-10T00:59:15.516Z,0
2017-02-10T00:59:56.198Z,0
2017-02-10T01:00:36.837Z,0
2017-02-10T01:01:17.479Z,0
2017-02-10T01:01:58.137Z,0
2017-02-10T01:02:38.783Z,0
2017-02-10T01:03:19.438Z,0
2017-02-10T01:04:00.000Z,0
2017-02-10T01:04:40.637Z,0
2017-02-10T01:05:21.285Z,0
2017-02-10T01:06:01.847Z,0
2017-02-10T01:06:42.502Z,0
2017-02-10T01:07:23.154Z,0
2017-02-10T01:08:03.721Z,0
2017-02-10T01:08:44.459Z,0
2017-02-10T01:09:25.119Z,0
2017-02-10T01:10:05.808Z,0
2017-02-10T01:10:46.343Z,0
2017-02-10T01:11:26.975Z,0
2017-02-10T01:12:07.617Z,0
2017-02-10T01:12:48.319Z,0
2017-02-10T01:13:28.871Z,0
2017-02-10T01:14:09.574Z,0
2017-02-10T01:14:50.225Z,0
2017-02-10T01:15:30.839Z,0
2017-02-10T01:16:11.520Z,0
2017-02-10T01:16:52.180Z,0
2017-02-10T01:17:32.841Z,0
2017-02-10T01:18:13.596Z,0
2017-02-10T01:18:54.247Z,0
2017-02-10T01:19:34.903Z,0
2017-02-10T01:20:15.565Z,0
2017-02-10T01:20:56.198Z,0
2017-02-10T01:21:36.811Z,0
2017-02-10T01:22:17.503Z,0
2017-02-10T01:22:58.175Z,0
2017-02-10T01:23:38.828Z,0
2017-02-10T01:24:19.517Z,0
2017-02-10T01:25:00.085Z,0
2017-02-10T01:25:40.791Z,0
2017-02-10T01:26:21.425Z,0
2017-02-10T01:27:02.079Z,0
2017-02-10T01:27:42.646Z,0
2017-02-10T01:28:23.296Z,0
2017-02-10T01:29:03.941Z,0
2017-02-10T01:29:44.509Z,0
2017-02-10T01:30:25.247Z,0
2017-02-10T01:31:05.901Z,0
2017-02-10T01:31:46.470Z,0
2017-02-10T01:32:27.076Z,0
2017-02-10T01:33:07.757Z,0
2017-02-10T01:33:48.321Z,0
2017-02-10T01:34:28.959Z,0
2017-02-10T01:35:09.613Z,0
2017-02-10T01:35:50.178Z,0
2017-02-10T01:36:30.825Z,0
2017-02-10T01:37:11.474Z,0
2017-02-10T01:37:52.038Z,0
2017-02-10T01:38:32.673Z,0
2017-02-10T01:39:13.326Z,0
2017-02-10T01:39:54.020Z,0
2017-02-10T01:40:34.597Z,0
2017-02-10T01:41:15.279Z,0
2017-02-10T01:41:55.943Z,0
2017-02-10T01:42:36.633Z,0
2017-02-10T01:43:17.195Z,0
2017-02-10T01:43:57.908Z,0
2017-02-10T01:44:38.553Z,0
2017-02-10T01:45:19.209Z,0
2017-02-10T01:45:59.876Z,0
2017-02-10T01:46:40.519Z,0
2017-02-10T01:47:21.165Z,0
2017-02-10T01:48:01.813Z,0
2017-02-10T01:48:42.510Z,0
2017-02-10T01:49:23.081Z,0
2017-02-10T01:50:03.795Z,0
2017-02-10T01:50:44.431Z,0
2017-02-10T01:51:25.122Z,0
2017-02-10T01:52:05.695Z,0
2017-02-10T01:52:46.379Z,0
2017-02-10T01:53:27.044Z,0
2017-02-10T01:54:07.696Z,0
2017-02-10T01:54:48.351Z,0
2017-02-10T01:55:29.026Z,0
2017-02-10T01:56:09.759Z,0
2017-02-10T01:56:50.405Z,0
2017-02-10T01:57:31.065Z,0
2017-02-10T01:58:11.712Z,0
2017-02-10T01:58:52.370Z,0
2017-02-10T01:59:33.016Z,0
2017-02-10T02:00:13.675Z,0
2017-02-10T02:00:54.351Z,0
2017-02-10T02:01:34.969Z,0
2017-02-10T02:02:15.634Z,0
2017-02-10T02:02:56.284Z,0
2017-02-10T02:03:36.984Z,0
2017-02-10T02:04:17.551Z,0
2017-02-10T02:04:58.256Z,0
2017-02-10T02:05:38.894Z,0
2017-02-10T02:06:19.600Z,0
2017-02-10T02:07:00.177Z,0
2017-02-10T02:07:40.859Z,0
2017-02-10T02:08:21.508Z,0
2017-02-10T02:09:02.159Z,0
2017-02-10T02:09:42.815Z,0
2017-02-10T02:10:23.467Z,0
2017-02-10T02:11:04.119Z,0
2017-02-10T02:11:44.887Z,0
2017-02-10T02:12:25.533Z,0
2017-02-10T02:13:06.181Z,0
2017-02-10T02:13:46.833Z,0
2017-02-10T02:14:27.497Z,0
2017-02-10T02:15:08.252Z,0
2017-02-10T02:15:48.893Z,0
2017-02-10T02:16:29.558Z,0
2017-02-10T02:17:10.211Z,0
2017-02-10T02:17:50.866Z,0
2017-02-10T02:18:31.559Z,0
2017-02-10T02:19:12.127Z,0
2017-02-10T02:19:52.822Z,0
2017-02-10T02:20:33.464Z,0
2017-02-10T02:21:14.164Z,0
2017-02-10T02:21:54.722Z,0
2017-02-10T02:22:35.424Z,0
2017-02-10T02:23:16.088Z,0
2017-02-10T02:23:56.731Z,0
2017-02-10T02:24:37.382Z,0
2017-02-10T02:25:18.045Z,0
2017-02-10T02:25:58.699Z,0
2017-02-10T02:26:39.337Z,0
2017-02-10T02:27:19.996Z,0
2017-02-10T02:28:00.659Z,0
2017-02-10T02:28:41.298Z,0
2017-02-10T02:29:21.948Z,0
2017-02-10T02:30:02.615Z,0
2017-02-10T02:30:43.259Z,0
2017-02-10T02:31:23.910Z,0
2017-02-10T02:32:04.562Z,0
2017-02-10T02:32:45.212Z,0
2017-02-10T02:33:25.877Z,0
2017-02-10T02:34:06.469Z,0
2017-02-10T02:34:47.028Z,0
2017-02-10T02:35:27.726Z,0
2017-02-10T02:36:08.385Z,0
2017-02-10T02:36:49.081Z,0
2017-02-10T02:37:29.660Z,0
2017-02-10T02:38:10.368Z,0
2017-02-10T02:38:51.102Z,0
2017-02-10T02:39:31.750Z,0
2017-02-10T02:40:12.398Z,0
2017-02-10T02:40:53.051Z,0
2017-02-10T02:41:33.702Z,0
2017-02-10T02:42:14.363Z,0
2017-02-10T02:42:55.005Z,0
2017-02-10T02:43:35.669Z,0
2017-02-10T02:44:16.323Z,0
2017-02-10T02:44:56.975Z,0
2017-02-10T02:45:37.625Z,0
2017-02-10T02:46:18.284Z,0
2017-02-10T02:46:58.934Z,0
2017-02-10T02:47:39.691Z,0
2017-02-10T02:48:20.340Z,0
2017-02-10T02:49:00.932Z,0
2017-02-10T02:49:41.655Z,0
2017-02-10T02:50:22.293Z,0
2017-02-10T02:51:02.875Z,0
2017-02-10T02:51:43.600Z,0
2017-02-10T02:52:24.261Z,0
2017-02-10T02:53:04.829Z,0
2017-02-10T02:53:45.559Z,0
2017-02-10T02:54:26.219Z,0
2017-02-10T02:55:06.798Z,0
2017-02-10T02:55:47.559Z,0
2017-02-10T02:56:28.277Z,0
2017-02-10T02:57:08.845Z,0
2017-02-10T02:57:49.496Z,0
2017-02-10T02:58:30.232Z,0
2017-02-10T02:59:10.882Z,0
2017-02-10T02:59:51.545Z,0
2017-02-10T03:00:32.220Z,0
2017-02-10T03:01:12.857Z,0
2017-02-10T03:01:53.596Z,0
2017-02-10T03:02:34.273Z,0
2017-02-10T03:03:14.905Z,0
2017-02-10T03:03:55.578Z,0
2017-02-10T03:04:36.320Z,0
2017-02-10T03:05:16.986Z,0
2017-02-10T03:05:57.626Z,0
2017-02-10T03:06:38.288Z,0
2017-02-10T03:07:19.022Z,0
2017-02-10T03:07:59.685Z,0
2017-02-10T03:08:40.264Z,0
2017-02-10T03:09:21.013Z,0
2017-02-10T03:10:01.764Z,0
2017-02-10T03:10:42.322Z,0
2017-02-10T03:11:23.042Z,0
2017-02-10T03:12:03.697Z,0
2017-02-10T03:12:44.278Z,0
2017-02-10T03:13:25.010Z,0
2017-02-10T03:14:05.671Z,0
2017-02-10T03:14:46.359Z,0
2017-02-10T03:15:26.940Z,0
2017-02-10T03:16:07.624Z,0
2017-02-10T03:16:48.196Z,0
2017-02-10T03:17:28.931Z,0
2017-02-10T03:18:09.581Z,0
2017-02-10T03:18:50.277Z,0
2017-02-10T03:19:30.845Z,0
2017-02-10T03:20:11.532Z,0
2017-02-10T03:20:52.292Z,0
2017-02-10T03:21:32.991Z,0
2017-02-10T03:22:13.551Z,0
2017-02-10T03:22:54.245Z,0
2017-02-10T03:23:34.923Z,0
2017-02-10T03:24:15.655Z,0
2017-02-10T03:24:56.307Z,0
2017-02-10T03:25:36.959Z,0
2017-02-10T03:26:17.615Z,0
2017-02-10T03:26:58.265Z,0
2017-02-10T03:27:39.049Z,0
2017-02-10T03:28:19.779Z,0
2017-02-10T03:29:00.430Z,0
2017-02-10T03:29:41.097Z,0
2017-02-10T03:30:21.769Z,0
2017-02-10T03:31:02.492Z,0
2017-02-10T03:31:43.143Z,0
2017-02-10T03:32:23.797Z,0
2017-02-10T03:33:04.455Z,0
2017-02-10T03:33:45.101Z,0
2017-02-10T03:34:25.810Z,0
2017-02-10T03:35:06.365Z,0
2017-02-10T03:35:47.060Z,0
2017-02-10T03:36:27.714Z,0
2017-02-10T03:37:08.420Z,0
2017-02-10T03:37:48.976Z,0
2017-02-10T03:38:29.570Z,0
2017-02-10T03:39:10.228Z,0
2017-02-10T03:39:50.926Z,0
2017-02-10T03:40:31.493Z,0
2017-02-10T03:41:12.181Z,0
2017-02-10T03:41:52.835Z,0
2017-02-10T03:42:33.539Z,0
2017-02-10T03:43:14.117Z,0
2017-02-10T03:43:54.791Z,0
2017-02-10T03:44:35.449Z,0
2017-02-10T03:45:16.201Z,0
2017-02-10T03:45:56.853Z,0
2017-02-10T03:46:37.507Z,0
2017-02-10T03:47:18.159Z,0
2017-02-10T03:47:58.814Z,0
2017-02-10T03:48:39.466Z,0
2017-02-10T03:49:20.174Z,0
2017-02-10T03:50:00.746Z,0
2017-02-10T03:50:41.424Z,0
2017-02-10T03:51:22.077Z,0
2017-02-10T03:52:02.782Z,0
2017-02-10T03:52:43.336Z,0
2017-02-10T03:53:24.037Z,0
2017-02-10T03:54:04.709Z,0
2017-02-10T03:54:45.361Z,0
2017-02-10T03:55:26.099Z,0
2017-02-10T03:56:06.767Z,0
2017-02-10T03:56:47.524Z,0
2017-02-10T03:57:28.262Z,0
2017-02-10T03:58:08.927Z,0
2017-02-10T03:58:49.670Z,0
2017-02-10T03:59:30.322Z,0
2017-02-10T04:00:10.974Z,0
2017-02-10T04:00:51.628Z,0
2017-02-10T04:01:32.296Z,0
2017-02-10T04:02:13.034Z,0
2017-02-10T04:02:53.690Z,0
2017-02-10T04:03:34.344Z,0
2017-02-10T04:04:15.054Z,0
2017-02-10T04:04:55.624Z,0
2017-02-10T04:05:36.319Z,0
2017-02-10T04:06:17.055Z,0
2017-02-10T04:06:57.688Z,0
2017-02-10T04:07:38.254Z,0
2017-02-10T04:08:18.911Z,0
2017-02-10T04:08:59.569Z,0
2017-02-10T04:09:40.281Z,0
2017-02-10T04:10:20.849Z,0
2017-02-10T04:11:01.526Z,0
2017-02-10T04:11:42.178Z,0
2017-02-10T04:12:22.883Z,0
2017-02-10T04:13:03.453Z,0
2017-02-10T04:13:44.136Z,0
2017-02-10T04:14:24.813Z,0
2017-02-10T04:15:05.494Z,0
2017-02-10T04:15:46.053Z,0
2017-02-10T04:16:26.764Z,0
2017-02-10T04:17:07.507Z,0
2017-02-10T04:17:48.208Z,0
2017-02-10T04:18:28.780Z,0
2017-02-10T04:19:09.482Z,0
2017-02-10T04:19:50.222Z,0
2017-02-10T04:20:30.972Z,0
2017-02-10T04:21:11.638Z,0
2017-02-10T04:21:52.391Z,0
2017-02-10T04:22:33.139Z,0
2017-02-10T04:23:13.931Z,0
2017-02-10T04:23:54.646Z,0
2017-02-10T04:24:35.325Z,0
2017-02-10T04:25:16.075Z,0
2017-02-10T04:25:56.832Z,0
2017-02-10T04:26:37.584Z,0
2017-02-10T04:27:18.329Z,0
2017-02-10T04:27:59.097Z,0
2017-02-10T04:28:39.859Z,0
2017-02-10T04:29:20.605Z,0
2017-02-10T04:30:01.361Z,0
2017-02-10T04:30:42.121Z,0
2017-02-10T04:31:22.876Z,0
2017-02-10T04:32:03.635Z,0
2017-02-10T04:32:44.384Z,0
2017-02-10T04:33:25.135Z,0
2017-02-10T04:34:05.893Z,0
2017-02-10T04:34:46.647Z,0
2017-02-10T04:35:27.405Z,0
2017-02-10T04:36:08.158Z,0
2017-02-10T04:36:48.915Z,0
2017-02-10T04:37:29.669Z,0
2017-02-10T04:38:10.423Z,0
2017-02-10T04:38:51.117Z,0
2017-02-10T04:39:31.680Z,0
2017-02-10T04:40:12.383Z,0
2017-02-10T04:40:53.128Z,0
2017-02-10T04:41:33.822Z,0
2017-02-10T04:42:14.390Z,0
2017-02-10T04:42:55.082Z,0
2017-02-10T04:43:35.852Z,0
2017-02-10T04:44:16.431Z,0
2017-02-10T04:44:57.155Z,0
2017-02-10T04:45:37.925Z,0
2017-02-10T04:46:18.490Z,0
2017-02-10T04:46:59.204Z,0
2017-02-10T04:47:39.873Z,0
2017-02-10T04:48:20.439Z,0
2017-02-10T04:49:01.151Z,0
2017-02-10T04:49:41.830Z,0
2017-02-10T04:50:22.533Z,0
2017-02-10T04:51:03.128Z,0
2017-02-10T04:51:43.862Z,0
2017-02-10T04:52:24.543Z,0
2017-02-10T04:53:05.150Z,0
2017-02-10T04:53:45.772Z,0
2017-02-10T04:54:26.489Z,0
2017-02-10T04:55:07.155Z,0
2017-02-10T04:55:47.849Z,0
2017-02-10T04:56:28.406Z,0
2017-02-10T04:57:09.129Z,0
2017-02-10T04:57:49.870Z,0
2017-02-10T04:58:30.574Z,0
2017-02-10T04:59:11.125Z,0
2017-02-10T04:59:51.828Z,0
2017-02-10T05:00:32.404Z,0
2017-02-10T05:01:13.135Z,0
2017-02-10T05:01:53.917Z,0
2017-02-10T05:02:34.440Z,0
2017-02-10T05:03:15.206Z,0
2017-02-10T05:03:55.947Z,0
2017-02-10T05:04:36.649Z,0
2017-02-10T05:05:17.229Z,0
2017-02-10T05:05:57.910Z,0
2017-02-10T05:06:38.656Z,0
2017-02-10T05:07:19.363Z,0
2017-02-10T05:07:59.919Z,0
2017-02-10T05:08:40.645Z,0
2017-02-10T05:09:21.377Z,0
2017-02-10T05:10:02.145Z,0
2017-02-10T05:10:42.894Z,0
2017-02-10T05:11:23.648Z,0
2017-02-10T05:12:04.423Z,0
2017-02-10T05:12:45.156Z,0
2017-02-10T05:13:25.905Z,0
2017-02-10T05:14:06.665Z,0
2017-02-10T05:14:47.427Z,0
2017-02-10T05:15:28.176Z,0
2017-02-10T05:16:08.943Z,0
2017-02-10T05:16:49.680Z,0
2017-02-10T05:17:30.251Z,0
2017-02-10T05:18:11.003Z,0
2017-02-10T05:18:51.739Z,0
2017-02-10T05:19:32.294Z,0
2017-02-10T05:20:13.043Z,0
2017-02-10T05:20:53.849Z,0
2017-02-10T05:21:34.404Z,0
2017-02-10T05:22:15.138Z,0
2017-02-10T05:22:55.866Z,0
2017-02-10T05:23:36.467Z,0
2017-02-10T05:24:17.193Z,0
2017-02-10T05:24:57.939Z,0
2017-02-10T05:25:38.528Z,0
2017-02-10T05:26:19.238Z,0
2017-02-10T05:26:59.989Z,0
2017-02-10T05:27:40.546Z,0
2017-02-10T05:28:21.292Z,0
2017-02-10T05:29:02.069Z,0
2017-02-10T05:29:42.820Z,0
2017-02-10T05:30:23.582Z,0
2017-02-10T05:31:04.325Z,0
2017-02-10T05:31:45.086Z,0
2017-02-10T05:32:25.850Z,0
2017-02-10T05:33:06.579Z,0
2017-02-10T05:33:47.362Z,0
2017-02-10T05:34:28.093Z,0
2017-02-10T05:35:08.754Z,0
2017-02-10T05:35:49.518Z,0
2017-02-10T05:36:30.250Z,0
2017-02-10T05:37:11.009Z,0
2017-02-10T05:37:51.795Z,0
2017-02-10T05:38:32.520Z,0
2017-02-10T05:39:13.271Z,0
2017-02-10T05:39:54.039Z,0
2017-02-10T05:40:34.788Z,0
2017-02-10T05:41:15.556Z,0
2017-02-10T05:41:56.301Z,0
2017-02-10T05:42:37.068Z,0
2017-02-10T05:43:17.823Z,0
2017-02-10T05:43:58.574Z,0
2017-02-10T05:44:39.332Z,0
2017-02-10T05:45:19.914Z,0
2017-02-10T05:46:00.645Z,0
2017-02-10T05:46:41.387Z,0
2017-02-10T05:47:22.144Z,0
2017-02-10T05:48:02.905Z,0
2017-02-10T05:48:43.656Z,0
2017-02-10T05:49:24.407Z,0
2017-02-10T05:50:05.173Z,0
2017-02-10T05:50:45.913Z,0
2017-02-10T05:51:26.667Z,0
2017-02-10T05:52:07.431Z,0
2017-02-10T05:52:48.197Z,0
2017-02-10T05:53:28.947Z,0
2017-02-10T05:54:09.688Z,0
2017-02-10T05:54:50.452Z,0
2017-02-10T05:55:31.207Z,0
2017-02-10T05:56:11.962Z,0
2017-02-10T05:56:52.710Z,0
2017-02-10T05:57:33.475Z,0
2017-02-10T05:58:14.246Z,0
2017-02-10T05:58:54.976Z,0
2017-02-10T05:59:35.723Z,0
2017-02-10T06:00:16.483Z,0
2017-02-10T06:00:57.261Z,0
2017-02-10T06:01:38.014Z,0
2017-02-10T06:02:18.771Z,0
2017-02-10T06:02:59.521Z,0
2017-02-10T06:03:40.276Z,0
2017-02-10T06:04:21.036Z,0
2017-02-10T06:05:01.791Z,0
2017-02-10T06:05:42.538Z,0
2017-02-10T06:06:23.314Z,0
2017-02-10T06:07:04.040Z,0
2017-02-10T06:07:44.803Z,0
2017-02-10T06:08:25.550Z,0
2017-02-10T06:09:06.326Z,0
2017-02-10T06:09:47.075Z,0
2017-02-10T06:10:27.816Z,0
2017-02-10T06:11:08.593Z,0
2017-02-10T06:11:49.336Z,0
2017-02-10T06:12:30.097Z,0
2017-02-10T06:13:10.851Z,0
2017-02-10T06:13:51.607Z,0
2017-02-10T06:14:32.183Z,0
2017-02-10T06:15:12.908Z,0
2017-02-10T06:15:53.651Z,0
2017-02-10T06:16:34.222Z,0
2017-02-10T06:17:14.967Z,0
2017-02-10T06:17:55.729Z,0
2017-02-10T06:18:36.293Z,0
2017-02-10T06:19:17.028Z,0
2017-02-10T06:19:57.597Z,0
2017-02-10T06:20:38.345Z,0
2017-02-10T06:21:19.082Z,0
2017-02-10T06:21:59.650Z,0
2017-02-10T06:22:40.386Z,0
2017-02-10T06:23:21.153Z,0
2017-02-10T06:24:01.719Z,0
2017-02-10T06:24:42.462Z,0
2017-02-10T06:25:23.219Z,0
2017-02-10T06:26:03.974Z,0
2017-02-10T06:26:44.726Z,0
2017-02-10T06:27:25.417Z,0
2017-02-10T06:28:06.140Z,0
2017-02-10T06:28:46.787Z,0
2017-02-10T06:29:27.550Z,0
2017-02-10T06:30:08.299Z,0
2017-02-10T06:30:49.055Z,0
2017-02-10T06:31:29.814Z,0
2017-02-10T06:32:10.587Z,0
2017-02-10T06:32:51.318Z,0
2017-02-10T06:33:31.910Z,0
2017-02-10T06:34:12.628Z,0
2017-02-10T06:34:53.411Z,0
2017-02-10T06:35:33.981Z,0
2017-02-10T06:36:14.685Z,0
2017-02-10T06:36:55.443Z,0
2017-02-10T06:37:36.236Z,0
2017-02-10T06:38:16.794Z,0
2017-02-10T06:38:57.530Z,0
2017-02-10T06:39:38.255Z,0
2017-02-10T06:40:19.053Z,0
2017-02-10T06:40:59.618Z,0
2017-02-10T06:41:40.319Z,0
2017-02-10T06:42:21.075Z,0
2017-02-10T06:43:01.884Z,0
2017-02-10T06:43:42.412Z,0
2017-02-10T06:44:23.136Z,0
2017-02-10T06:45:03.892Z,0
2017-02-10T06:45:44.647Z,0
2017-02-10T06:46:25.392Z,0
2017-02-10T06:47:06.168Z,0
2017-02-10T06:47:47.045Z,0
2017-02-10T06:48:27.671Z,0
2017-02-10T06:49:08.307Z,0
2017-02-10T06:49:49.025Z,0
2017-02-10T06:50:29.582Z,0
2017-02-10T06:51:10.171Z,0
2017-02-10T06:51:50.831Z,0
2017-02-10T06:52:31.389Z,0
2017-02-10T06:53:12.138Z,0
2017-02-10T06:53:52.791Z,0
2017-02-10T06:54:33.361Z,0
2017-02-10T06:55:13.990Z,0
2017-02-10T06:55:54.646Z,0
2017-02-10T06:56:35.300Z,0
2017-02-10T06:57:15.958Z,0
2017-02-10T06:57:56.605Z,0
2017-02-10T06:58:37.255Z,0
2017-02-10T06:59:17.911Z,0
2017-02-10T06:59:58.575Z,0
2017-02-10T07:00:39.209Z,0
2017-02-10T07:01:19.861Z,0
2017-02-10T07:02:00.535Z,0
2017-02-10T07:02:41.167Z,0
2017-02-10T07:03:21.830Z,0
2017-02-10T07:04:02.486Z,0
2017-02-10T07:04:43.142Z,0
2017-02-10T07:05:23.788Z,0
2017-02-10T07:06:04.441Z,0
2017-02-10T07:06:45.007Z,0
2017-02-10T07:07:25.640Z,0
2017-02-10T07:08:06.288Z,0
2017-02-10T07:08:46.961Z,0
2017-02-10T07:09:27.610Z,0
2017-02-10T07:10:08.260Z,0
2017-02-10T07:10:48.830Z,0
2017-02-10T07:11:29.455Z,0
2017-02-10T07:12:10.222Z,0
2017-02-10T07:12:50.801Z,0
2017-02-10T07:13:31.419Z,0
2017-02-10T07:14:12.076Z,0
2017-02-10T07:14:52.730Z,0
2017-02-10T07:15:33.374Z,0
2017-02-10T07:16:14.036Z,0
2017-02-10T07:16:54.680Z,0
2017-02-10T07:17:35.325Z,0
2017-02-10T07:18:15.980Z,0
2017-02-10T07:18:56.635Z,0
2017-02-10T07:19:37.335Z,0
2017-02-10T07:20:17.889Z,0
2017-02-10T07:20:58.487Z,0
2017-02-10T07:21:39.156Z,0
2017-02-10T07:22:19.842Z,0
2017-02-10T07:23:00.399Z,0
2017-02-10T07:23:41.035Z,5
2017-02-10T07:24:21.660Z,5
2017-02-10T07:25:02.303Z,5
2017-02-10T07:25:42.969Z,5
2017-02-10T07:26:23.617Z,5
2017-02-10T07:27:04.276Z,5
2017-02-10T07:27:44.932Z,5
2017-02-10T07:28:25.587Z,5
2017-02-10T07:29:06.226Z,5
2017-02-10T07:29:46.903Z,5
2017-02-10T07:30:27.566Z,10
2017-02-10T07:31:08.251Z,10
2017-02-10T07:31:48.985Z,10
2017-02-10T07:32:29.645Z,10
2017-02-10T07:33:10.309Z,10
2017-02-10T07:33:51.045Z,10
2017-02-10T07:34:31.594Z,10
2017-02-10T07:35:12.250Z,10
2017-02-10T07:35:52.921Z,10
2017-02-10T07:36:33.501Z,10
2017-02-10T07:37:14.221Z,10
2017-02-10T07:37:54.979Z,10
2017-02-10T07:38:35.536Z,10
2017-02-10T07:39:16.243Z,10
2017-02-10T07:39:56.939Z,10
2017-02-10T07:40:37.575Z,10
2017-02-10T07:41:18.340Z,10
2017-02-10T07:41:58.988Z,10
2017-02-10T07:42:39.758Z,10
2017-02-10T07:43:20.539Z,10
2017-02-10T07:44:01.267Z,10
2017-02-10T07:44:41.961Z,10
2017-02-10T07:45:22.525Z,10
2017-02-10T07:46:03.227Z,10
2017-02-10T07:46:43.932Z,15
2017-02-10T07:47:24.634Z,15
2017-02-10T07:48:05.188Z,15
2017-02-10T07:48:45.900Z,15
2017-02-10T07:49:26.538Z,15
2017-02-10T07:50:07.208Z,15
2017-02-10T07:50:47.850Z,15
2017-02-10T07:51:28.510Z,15
2017-02-10T07:52:09.121Z,15
2017-02-10T07:52:49.817Z,15
2017-02-10T07:53:30.519Z,15
2017-02-10T07:54:11.225Z,15
2017-02-10T07:54:51.863Z,15
2017-02-10T07:55:32.516Z,15
2017-02-10T07:56:13.170Z,15
2017-02-10T07:56:53.848Z,15
2017-02-10T07:57:34.491Z,20
2017-02-10T07:58:15.139Z,20
2017-02-10T07:58:55.785Z,20
2017-02-10T07:59:36.435Z,20
2017-02-10T08:00:17.215Z,20
2017-02-10T08:00:57.858Z,15
2017-02-10T08:01:38.499Z,20
2017-02-10T08:02:19.198Z,20
2017-02-10T08:02:59.922Z,20
2017-02-10T08:03:40.558Z,20
2017-02-10T08:04:21.225Z,20
2017-02-10T08:05:02.225Z,20
2017-02-10T08:05:42.826Z,20
2017-02-10T08:06:23.502Z,20
2017-02-10T08:07:04.151Z,20
2017-02-10T08:07:44.781Z,20
2017-02-10T08:08:25.439Z,20
2017-02-10T08:09:06.086Z,20
2017-02-10T08:09:46.739Z,20
2017-02-10T08:10:27.399Z,20
2017-02-10T08:11:08.055Z,20
2017-02-10T08:11:48.698Z,20
2017-02-10T08:12:29.354Z,20
2017-02-10T08:13:10.011Z,25
2017-02-10T08:13:50.678Z,25
2017-02-10T08:14:31.312Z,25
2017-02-10T08:15:11.964Z,25
2017-02-10T08:15:52.615Z,25
2017-02-10T08:16:33.268Z,25
2017-02-10T08:17:14.979Z,25
2017-02-10T08:17:55.603Z,25
2017-02-10T08:18:36.260Z,25
2017-02-10T08:19:16.933Z,25
2017-02-10T08:19:57.609Z,25
2017-02-10T08:20:38.164Z,25
2017-02-10T08:21:18.764Z,25
2017-02-10T08:21:59.424Z,25
2017-02-10T08:22:40.015Z,30
2017-02-10T08:23:20.588Z,30
2017-02-10T08:24:01.169Z,30
2017-02-10T08:24:41.821Z,30
2017-02-10T08:25:22.430Z,35
2017-02-10T08:26:02.983Z,30
2017-02-10T08:26:43.591Z,30
2017-02-10T08:27:24.247Z,30
2017-02-10T08:28:04.836Z,30
2017-02-10T08:28:45.394Z,30
2017-02-10T08:29:25.997Z,25
2017-02-10T08:30:06.649Z,25
2017-02-10T08:30:47.241Z,30
2017-02-10T08:31:27.805Z,30
2017-02-10T08:32:08.402Z,30
2017-02-10T08:32:49.068Z,30
2017-02-10T08:33:29.753Z,30
2017-02-10T08:34:10.315Z,30
2017-02-10T08:34:51.010Z,30
2017-02-10T08:35:31.575Z,30
2017-02-10T08:36:12.219Z,25
2017-02-10T08:36:52.871Z,25
2017-02-10T08:37:33.445Z,25
2017-02-10T08:38:14.058Z,30
2017-02-10T08:38:54.663Z,30
2017-02-10T08:39:35.241Z,25
2017-02-10T08:40:15.884Z,25
2017-02-10T08:40:56.531Z,25
2017-02-10T08:41:37.208Z,25
2017-02-10T08:42:17.776Z,25
2017-02-10T08:42:58.374Z,25
2017-02-10T08:43:39.038Z,25
2017-02-10T08:44:19.717Z,25
2017-02-10T08:45:00.318Z,25
2017-02-10T08:45:40.982Z,30
2017-02-10T08:46:21.631Z,30
2017-02-10T08:47:02.224Z,30
2017-02-10T08:47:42.786Z,30
2017-02-10T08:48:23.379Z,30
2017-02-10T08:49:03.939Z,30
2017-02-10T08:49:44.512Z,30
2017-02-10T08:50:25.135Z,30
2017-02-10T08:51:05.793Z,30
2017-02-10T08:51:46.374Z,30
2017-02-10T08:52:26.998Z,30
2017-02-10T08:53:07.652Z,30
2017-02-10T08:53:48.223Z,30
2017-02-10T08:54:28.849Z,30
2017-02-10T08:55:09.499Z,30
2017-02-10T08:55:51.119Z,35
2017-02-10T08:56:31.689Z,35
2017-02-10T08:57:12.281Z,35
2017-02-10T08:57:52.855Z,35
2017-02-10T08:58:33.406Z,35
2017-02-10T08:59:13.983Z,35
2017-02-10T08:59:54.562Z,35
2017-02-10T09:00:35.135Z,35
2017-02-10T09:01:15.791Z,40
2017-02-10T09:01:56.387Z,40
2017-02-10T09:02:36.949Z,35
2017-02-10T09:03:17.560Z,35
2017-02-10T09:03:59.119Z,35
2017-02-10T09:04:39.726Z,35
2017-02-10T09:05:20.323Z,35
2017-02-10T09:06:00.975Z,35
2017-02-10T09:06:41.647Z,35
2017-02-10T09:07:22.283Z,35
2017-02-10T09:08:02.937Z,35
2017-02-10T09:08:43.598Z,35
2017-02-10T09:09:24.303Z,35
2017-02-10T09:10:04.946Z,35
2017-02-10T09:10:45.495Z,35
2017-02-10T09:11:26.096Z,35
2017-02-10T09:12:06.769Z,40
2017-02-10T09:12:47.448Z,40
2017-02-10T09:13:28.081Z,40
2017-02-10T09:14:08.706Z,40
2017-02-10T09:14:49.360Z,40
2017-02-10T09:15:30.012Z,40
2017-02-10T09:16:10.828Z,40
2017-02-10T09:16:51.323Z,40
2017-02-10T09:17:32.013Z,40
2017-02-10T09:18:12.644Z,40
2017-02-10T09:18:53.293Z,40
2017-02-10T09:19:33.941Z,40
2017-02-10T09:20:14.489Z,40
2017-02-10T09:20:55.152Z,45
2017-02-10T09:21:35.798Z,45
2017-02-10T09:22:16.382Z,45
2017-02-10T09:22:56.946Z,50
2017-02-10T09:23:37.551Z,45
2017-02-10T09:24:18.138Z,45
2017-02-10T09:24:58.742Z,45
2017-02-10T09:25:39.409Z,45
2017-02-10T09:26:20.073Z,45
2017-02-10T09:27:02.645Z,45
2017-02-10T09:27:43.285Z,45
2017-02-10T09:28:23.953Z,45
2017-02-10T09:29:04.596Z,45
2017-02-10T09:29:45.275Z,45
2017-02-10T09:30:26.840Z,45
2017-02-10T09:31:07.440Z,45
2017-02-10T09:31:48.012Z,45
2017-02-10T09:32:28.589Z,50
2017-02-10T09:33:09.246Z,50
2017-02-10T09:33:49.849Z,50
2017-02-10T09:34:30.419Z,50
2017-02-10T09:35:11.011Z,55
2017-02-10T09:35:51.656Z,55
2017-02-10T09:36:32.251Z,55
2017-02-10T09:37:12.818Z,60
2017-02-10T09:37:53.401Z,60
2017-02-10T09:38:34.057Z,65
2017-02-10T09:39:14.761Z,65
2017-02-10T09:39:55.356Z,65
2017-02-10T09:40:36.010Z,65
2017-02-10T09:41:16.683Z,65
2017-02-10T09:41:57.334Z,65
2017-02-10T09:42:38.008Z,65
2017-02-10T09:43:18.622Z,65
2017-02-10T09:43:59.283Z,65
2017-02-10T09:44:39.948Z,60
2017-02-10T09:45:20.545Z,60
2017-02-10T09:46:01.133Z,60
2017-02-10T09:46:41.810Z,60
2017-02-10T09:47:22.440Z,60
2017-02-10T09:48:03.042Z,60
2017-02-10T09:48:43.600Z,60
2017-02-10T09:49:24.206Z,60
2017-02-10T09:50:04.855Z,60
2017-02-10T09:50:45.541Z,60
2017-02-10T09:51:26.168Z,55
2017-02-10T09:52:06.821Z,55
2017-02-10T09:52:47.458Z,55
2017-02-10T09:53:28.110Z,55
2017-02-10T09:54:08.762Z,50
2017-02-10T09:54:49.370Z,50
2017-02-10T09:55:29.928Z,50
2017-02-10T09:56:10.523Z,55
2017-02-10T09:56:51.195Z,55